Dolton, Illinois
Current Conditions -  °F | °C
As of 12:35 PM on Saturday 25 Oct 2014 (Local Time) from KIGQ Reporting Station
Clear Clear  
Wind Chill: 69°   Ceiling: Unl
Heat Index: 69°   Visibility: 10mi
Dew Point: 47°   Wind: 8mph
Humidity: 46%   Direction: 300°WNW
Pressure: 29.95"   Gusts: NA
Location:  41.64°N, 87.61°W
Report Text: KIGQ 251735Z AUTO 30007KT 10SM CLR 21/09 A2995 RMK AO2 T02050086
Loading
Personal Weather Stations






























Interactive Weather Map
Tropical Storm Tracking
New forecast layout! Learn more

10-Day Weather Forecast

Advertisements
Track Severe Weather on mobile